Terminal Aerodrome Forecast
Issued by NWS

Home | Current Version | Previous Version | Text Only | Print | Product List | Glossary On
Versions: 1 2 3 4 5 6 7 8 9 10 11 12 13 14 15 16 17 18
000
FTAK31 PAFA 271444 AAA
TAFAOM
TAF AMD
PAOM 271444Z 2715/2812 VRB03KT 1/2SM FG VV002
     FM271800 16008G13KT P6SM BKN025 OVC040
     FM272200 15015G25KT P6SM -SHRA SCT012 BKN025 OVC040
     FM280100 17018G26KT 2SM -SHRA BR BKN012 OVC025=

USA.gov is the U.S. government's official web portal to all federal, state and local government web resources and services.